createdAt,value
2023-10-26T00:07:22.295Z,989.28
2023-10-26T00:17:22.885Z,989.30
2023-10-26T00:27:23.470Z,989.20
2023-10-26T00:37:24.027Z,989.09
2023-10-26T00:47:24.609Z,988.98
2023-10-26T00:57:25.212Z,988.90
2023-10-26T01:07:25.768Z,988.80
2023-10-26T01:17:26.360Z,988.67
2023-10-26T01:27:26.912Z,988.57
2023-10-26T01:37:27.520Z,988.51
2023-10-26T01:47:28.062Z,988.40
2023-10-26T01:57:28.632Z,988.28
2023-10-26T02:07:29.181Z,988.26
2023-10-26T02:17:29.747Z,988.21
2023-10-26T02:27:30.339Z,988.10
2023-10-26T02:37:30.842Z,988.07
2023-10-26T02:47:31.409Z,988.04
2023-10-26T02:57:31.960Z,988.00
2023-10-26T03:07:32.481Z,987.92
2023-10-26T03:17:33.046Z,987.87
2023-10-26T03:27:33.568Z,987.87
2023-10-26T03:37:34.137Z,987.90
2023-10-26T03:47:34.717Z,987.94
2023-10-26T03:57:35.278Z,987.91
2023-10-26T04:07:35.791Z,987.80
2023-10-26T04:17:36.382Z,987.71
2023-10-26T04:27:36.918Z,987.64
2023-10-26T04:37:37.489Z,987.61
2023-10-26T04:47:45.061Z,987.63
2023-10-26T04:57:38.609Z,987.56
2023-10-26T05:07:39.104Z,987.58
2023-10-26T05:17:39.759Z,987.49
2023-10-26T05:27:40.130Z,987.43
2023-10-26T05:37:40.690Z,987.43
2023-10-26T05:47:41.228Z,987.43
2023-10-26T05:57:41.750Z,987.52
2023-10-26T06:07:42.205Z,987.54
2023-10-26T06:17:42.788Z,987.60
2023-10-26T06:27:43.214Z,987.63
2023-10-26T06:37:43.718Z,987.69
2023-10-26T06:47:44.232Z,987.73
2023-10-26T06:57:44.748Z,987.81
2023-10-26T07:07:45.243Z,987.85
2023-10-26T07:17:45.879Z,987.96
2023-10-26T07:27:46.326Z,988.00
2023-10-26T07:37:55.009Z,988.13
2023-10-26T07:47:48.241Z,988.23
2023-10-26T07:57:47.753Z,988.24
2023-10-26T08:07:48.317Z,988.26
2023-10-26T08:17:48.961Z,988.29
2023-10-26T08:27:49.918Z,988.37
2023-10-26T08:37:50.455Z,988.49
2023-10-26T08:47:50.919Z,988.60
2023-10-26T08:57:51.511Z,988.62
2023-10-26T09:07:52.189Z,988.75
2023-10-26T09:17:52.733Z,988.80
2023-10-26T09:27:53.204Z,988.87
2023-10-26T09:37:53.750Z,988.93
2023-10-26T09:47:54.541Z,989.02
2023-10-26T09:57:55.067Z,989.03
2023-10-26T10:07:55.065Z,989.06
2023-10-26T10:17:55.662Z,989.03
2023-10-26T10:27:56.220Z,989.09
2023-10-26T10:37:56.716Z,989.08
2023-10-26T10:48:04.195Z,989.09
2023-10-26T10:57:57.856Z,989.01
2023-10-26T11:07:58.435Z,989.03
2023-10-26T11:17:59.164Z,989.08
2023-10-26T11:27:59.716Z,989.10
2023-10-26T11:38:00.283Z,989.23
2023-10-26T11:48:00.733Z,989.27
2023-10-26T11:58:01.392Z,989.27
2023-10-26T12:08:01.858Z,989.38
2023-10-26T12:18:02.669Z,989.46
2023-10-26T12:28:20.034Z,989.53
2023-10-26T12:38:05.117Z,989.64
2023-10-26T12:48:04.594Z,989.64
2023-10-26T12:58:05.219Z,989.60
2023-10-26T13:08:05.681Z,989.70
2023-10-26T13:18:06.299Z,989.69
2023-10-26T13:28:06.793Z,989.72
2023-10-26T13:38:07.380Z,989.82
2023-10-26T13:48:07.887Z,989.85
2023-10-26T13:58:08.500Z,989.89
2023-10-26T14:08:08.918Z,990.03
2023-10-26T14:18:09.537Z,990.09
2023-10-26T14:28:09.973Z,990.08
2023-10-26T14:38:10.579Z,990.08
2023-10-26T14:48:11.009Z,990.00
2023-10-26T14:58:11.621Z,990.03
2023-10-26T15:08:12.049Z,990.02
2023-10-26T15:18:12.668Z,989.98
2023-10-26T15:28:13.144Z,989.99
2023-10-26T15:38:13.723Z,989.98
2023-10-26T15:48:14.158Z,990.02
2023-10-26T15:58:14.829Z,990.00
2023-10-26T16:08:15.300Z,989.95
2023-10-26T16:18:15.963Z,989.88
2023-10-26T16:28:16.464Z,989.89
2023-10-26T16:38:17.103Z,989.94
2023-10-26T16:48:24.647Z,990.01
2023-10-26T16:58:18.265Z,990.02
2023-10-26T17:08:18.799Z,990.02
2023-10-26T17:18:19.425Z,990.01
2023-10-26T17:28:19.902Z,990.04
2023-10-26T17:38:20.569Z,990.01
2023-10-26T17:48:21.052Z,989.92
2023-10-26T17:58:21.718Z,989.94
2023-10-26T18:08:22.238Z,989.97
2023-10-26T18:18:22.901Z,990.02
2023-10-26T18:28:23.383Z,990.08
2023-10-26T18:38:24.025Z,990.12
2023-10-26T18:48:24.531Z,990.12
2023-10-26T18:58:25.180Z,990.14
2023-10-26T19:08:25.664Z,990.27
2023-10-26T19:18:26.472Z,990.29
2023-10-26T19:28:27.037Z,990.26
2023-10-26T19:38:27.707Z,990.33
2023-10-26T19:48:28.271Z,990.26
2023-10-26T19:58:29.755Z,990.27
2023-10-26T20:08:29.239Z,990.40
2023-10-26T20:18:29.912Z,990.33
2023-10-26T20:28:30.480Z,990.16
2023-10-26T20:38:31.173Z,990.11
2023-10-26T20:48:31.678Z,990.19
2023-10-26T20:58:32.324Z,990.18
2023-10-26T21:08:32.824Z,990.11
2023-10-26T21:18:33.484Z,990.06
2023-10-26T21:28:34.010Z,990.08
2023-10-26T21:38:34.656Z,989.97
2023-10-26T21:48:35.170Z,990.00
2023-10-26T21:58:35.793Z,989.99
2023-10-26T22:08:36.266Z,990.04
2023-10-26T22:18:36.931Z,989.99
2023-10-26T22:28:37.438Z,989.99
2023-10-26T22:38:38.089Z,989.95
2023-10-26T22:48:45.660Z,990.06
2023-10-26T22:58:39.333Z,989.96
2023-10-26T23:08:39.824Z,989.84
2023-10-26T23:18:40.577Z,989.93
2023-10-26T23:28:41.100Z,989.85
2023-10-26T23:38:41.768Z,989.56
2023-10-26T23:48:42.309Z,989.53
2023-10-26T23:58:43.018Z,989.45
